createdAt,value
2022-10-06T00:01:08.329Z,9.43
2022-10-06T00:03:38.365Z,9.50
2022-10-06T00:06:06.234Z,8.55
2022-10-06T00:08:35.521Z,9.68
2022-10-06T00:11:08.334Z,10.30
2022-10-06T00:13:36.110Z,8.80
2022-10-06T00:16:08.913Z,8.82
2022-10-06T00:18:36.552Z,12.80
2022-10-06T00:21:04.380Z,8.68
2022-10-06T00:23:32.091Z,9.90
2022-10-06T00:25:59.497Z,14.38
2022-10-06T00:28:27.986Z,11.15
2022-10-06T00:30:56.537Z,9.00
2022-10-06T00:33:24.546Z,9.20
2022-10-06T00:35:58.630Z,7.57
2022-10-06T00:38:27.394Z,9.05
2022-10-06T00:40:55.124Z,9.60
2022-10-06T00:43:44.249Z,9.57
2022-10-06T00:46:25.245Z,9.15
2022-10-06T00:48:56.723Z,8.13
2022-10-06T00:51:24.547Z,12.95
2022-10-06T00:53:52.261Z,8.95
2022-10-06T00:56:19.752Z,9.77
2022-10-06T00:58:49.663Z,11.32
2022-10-06T01:01:17.367Z,10.60
2022-10-06T01:03:57.040Z,9.75
2022-10-06T01:06:24.737Z,8.75
2022-10-06T01:08:52.764Z,12.23
2022-10-06T01:11:21.188Z,8.93
2022-10-06T01:13:48.731Z,8.63
2022-10-06T01:16:23.447Z,10.20
2022-10-06T01:18:52.332Z,11.52
2022-10-06T01:21:31.021Z,9.82
2022-10-06T01:23:58.863Z,11.00
2022-10-06T01:26:26.776Z,8.90
2022-10-06T01:28:54.319Z,9.02
2022-10-06T01:31:22.033Z,10.32
2022-10-06T01:33:53.624Z,7.60
2022-10-06T01:36:21.347Z,8.73
2022-10-06T01:38:51.004Z,10.93
2022-10-06T01:41:20.022Z,9.40
2022-10-06T01:43:47.932Z,9.40
2022-10-06T01:46:15.641Z,13.57
2022-10-06T01:48:43.094Z,8.82
2022-10-06T01:51:16.354Z,10.40
2022-10-06T01:53:44.329Z,9.05
2022-10-06T01:56:12.319Z,9.80
2022-10-06T01:58:40.036Z,10.05
2022-10-06T02:01:09.427Z,10.93
2022-10-06T02:03:38.158Z,11.13
2022-10-06T02:06:06.000Z,12.35
2022-10-06T02:08:34.190Z,10.25
2022-10-06T02:11:10.605Z,14.55
2022-10-06T02:13:45.130Z,14.38
2022-10-06T02:16:14.584Z,13.53
2022-10-06T02:18:44.069Z,10.90
2022-10-06T02:21:20.060Z,10.20
2022-10-06T02:23:48.901Z,10.20
2022-10-06T02:26:19.945Z,11.77
2022-10-06T02:28:52.304Z,9.50
2022-10-06T02:31:26.140Z,12.48
2022-10-06T02:33:55.481Z,11.35
2022-10-06T02:36:25.081Z,11.60
2022-10-06T02:38:54.448Z,13.10
2022-10-06T02:41:23.323Z,10.00
2022-10-06T02:43:55.506Z,9.95
2022-10-06T02:46:24.477Z,11.45
2022-10-06T02:48:54.272Z,10.10
2022-10-06T02:51:23.758Z,11.10
2022-10-06T02:53:51.862Z,9.60
2022-10-06T02:56:22.374Z,11.10
2022-10-06T02:58:51.934Z,12.10
2022-10-06T03:01:32.164Z,10.73
2022-10-06T03:04:08.531Z,10.20
2022-10-06T03:06:37.201Z,9.43
2022-10-06T03:09:19.425Z,11.85
2022-10-06T03:11:51.150Z,11.18
2022-10-06T03:14:30.007Z,12.35
2022-10-06T03:16:58.836Z,10.02
2022-10-06T03:19:30.661Z,9.47
2022-10-06T03:21:59.910Z,11.18
2022-10-06T03:24:46.610Z,11.30
2022-10-06T03:27:16.166Z,9.30
2022-10-06T03:29:45.447Z,10.20
2022-10-06T03:32:15.190Z,10.13
2022-10-06T03:34:44.689Z,11.90
2022-10-06T03:37:15.441Z,17.20
2022-10-06T03:39:43.550Z,9.85
2022-10-06T03:42:12.870Z,10.82
2022-10-06T03:44:41.808Z,11.23
2022-10-06T03:47:13.333Z,12.70
2022-10-06T03:49:45.648Z,11.60
2022-10-06T03:52:15.259Z,9.48
2022-10-06T03:54:43.990Z,9.85
2022-10-06T03:57:14.417Z,10.63
2022-10-06T03:59:44.055Z,12.95
2022-10-06T04:02:12.915Z,12.55
2022-10-06T04:04:40.644Z,14.07
2022-10-06T04:07:10.074Z,10.65
2022-10-06T04:09:38.186Z,10.87
2022-10-06T04:12:05.849Z,11.07
2022-10-06T04:14:35.853Z,11.43
2022-10-06T04:17:05.160Z,14.45
2022-10-06T04:19:39.299Z,12.90
2022-10-06T04:22:07.152Z,14.50
2022-10-06T04:24:35.524Z,11.27
2022-10-06T04:27:22.038Z,12.75
2022-10-06T04:29:59.326Z,15.65
2022-10-06T04:32:27.684Z,10.57
2022-10-06T04:34:55.671Z,12.60
2022-10-06T04:37:25.605Z,10.45
2022-10-06T04:39:54.302Z,12.18
2022-10-06T04:42:22.209Z,10.27
2022-10-06T04:44:50.738Z,10.65
2022-10-06T04:47:18.408Z,12.23
2022-10-06T04:49:47.167Z,11.77
2022-10-06T04:52:15.059Z,13.15
2022-10-06T04:54:43.188Z,13.00
2022-10-06T04:57:10.592Z,13.10
2022-10-06T05:00:07.997Z,13.17
2022-10-06T05:02:40.673Z,13.43
2022-10-06T05:05:09.236Z,10.40
2022-10-06T05:07:37.373Z,14.45
2022-10-06T05:10:06.599Z,12.82
2022-10-06T05:12:34.689Z,10.33
2022-10-06T05:15:03.274Z,12.68
2022-10-06T05:17:31.920Z,14.07
2022-10-06T05:20:00.849Z,11.38
2022-10-06T05:22:31.757Z,12.02
2022-10-06T05:25:02.215Z,12.40
2022-10-06T05:27:32.599Z,15.50
2022-10-06T05:30:05.118Z,14.95
2022-10-06T05:32:36.214Z,12.98
2022-10-06T05:35:06.396Z,19.05
2022-10-06T05:37:54.145Z,12.77
2022-10-06T05:40:25.140Z,10.45
2022-10-06T05:42:56.349Z,13.30
2022-10-06T05:45:26.225Z,13.40
2022-10-06T05:47:58.704Z,15.38
2022-10-06T05:50:32.651Z,16.30
2022-10-06T05:53:02.478Z,14.95
2022-10-06T05:55:32.370Z,15.55
2022-10-06T05:58:06.972Z,11.23
2022-10-06T06:00:38.782Z,18.55
2022-10-06T06:03:10.896Z,16.20
2022-10-06T06:05:47.448Z,15.82
2022-10-06T06:08:31.038Z,13.68
2022-10-06T06:11:05.979Z,15.68
2022-10-06T06:13:34.365Z,18.20
2022-10-06T06:16:15.321Z,13.47
2022-10-06T06:18:43.188Z,13.82
2022-10-06T06:21:13.037Z,15.63
2022-10-06T06:23:44.399Z,14.98
2022-10-06T06:26:17.630Z,14.00
2022-10-06T06:28:48.788Z,16.77
2022-10-06T06:31:20.422Z,11.93
2022-10-06T06:33:53.772Z,13.80
2022-10-06T06:36:45.963Z,13.38
2022-10-06T06:39:17.821Z,14.27
2022-10-06T06:41:47.549Z,12.03
2022-10-06T06:44:35.076Z,12.05
2022-10-06T06:47:06.169Z,11.57
2022-10-06T06:49:33.475Z,11.70
2022-10-06T06:52:05.499Z,11.38
2022-10-06T06:54:34.786Z,10.83
2022-10-06T06:57:10.124Z,11.97
2022-10-06T06:59:39.091Z,10.48
2022-10-06T07:02:10.090Z,11.57
2022-10-06T07:04:39.726Z,12.50
2022-10-06T07:07:29.857Z,13.23
2022-10-06T07:09:58.276Z,16.10
2022-10-06T07:12:26.660Z,11.50
2022-10-06T07:15:16.034Z,14.73
2022-10-06T07:18:05.219Z,11.20
2022-10-06T07:20:51.470Z,13.70
2022-10-06T07:23:38.257Z,13.97
2022-10-06T07:26:09.658Z,12.27
2022-10-06T07:28:37.584Z,11.63
2022-10-06T07:31:05.010Z,9.85
2022-10-06T07:33:33.630Z,13.07
2022-10-06T07:36:07.065Z,17.50
2022-10-06T07:38:35.813Z,11.65
2022-10-06T07:41:20.137Z,12.10
2022-10-06T07:43:55.277Z,20.38
2022-10-06T07:46:24.757Z,13.90
2022-10-06T07:49:10.119Z,12.80
2022-10-06T07:51:37.432Z,17.13
2022-10-06T07:54:34.943Z,13.63
2022-10-06T07:57:34.804Z,15.02
2022-10-06T08:00:05.534Z,10.45
2022-10-06T08:02:39.959Z,14.57
2022-10-06T08:05:08.640Z,16.95
2022-10-06T08:07:36.216Z,14.07
2022-10-06T08:10:03.829Z,14.38
2022-10-06T08:12:34.450Z,14.32
2022-10-06T08:15:07.011Z,12.75
2022-10-06T08:17:36.858Z,14.30
2022-10-06T08:20:05.942Z,14.53
2022-10-06T08:22:33.596Z,17.40
2022-10-06T08:25:06.238Z,11.88
2022-10-06T08:27:35.471Z,12.25
2022-10-06T08:30:04.863Z,14.05
2022-10-06T08:32:33.205Z,15.20
2022-10-06T08:35:00.552Z,16.77
2022-10-06T08:37:28.077Z,17.38
2022-10-06T08:39:55.519Z,14.60
2022-10-06T08:42:26.202Z,16.10
2022-10-06T08:44:57.029Z,13.17
2022-10-06T08:47:24.612Z,12.60
2022-10-06T08:49:52.946Z,15.18
2022-10-06T08:52:48.016Z,13.65
2022-10-06T08:55:21.563Z,17.50
2022-10-06T08:58:31.750Z,16.03
2022-10-06T09:01:09.877Z,17.48
2022-10-06T09:03:37.965Z,13.45
2022-10-06T09:06:12.663Z,13.60
2022-10-06T09:09:02.181Z,17.52
2022-10-06T09:11:53.101Z,18.03
2022-10-06T09:14:22.266Z,15.32
2022-10-06T09:16:54.121Z,15.20
2022-10-06T09:19:38.092Z,15.30
2022-10-06T09:22:05.726Z,15.80
2022-10-06T09:24:46.941Z,16.67
2022-10-06T09:27:21.844Z,17.20
2022-10-06T09:29:49.418Z,16.13
2022-10-06T09:32:21.357Z,18.80
2022-10-06T09:34:56.361Z,18.63
2022-10-06T09:37:24.011Z,12.73
2022-10-06T09:39:51.996Z,17.33
2022-10-06T09:42:26.241Z,14.55
2022-10-06T09:44:53.568Z,10.73
2022-10-06T09:47:45.433Z,14.07
2022-10-06T09:50:22.331Z,9.73
2022-10-06T09:52:49.934Z,10.43
2022-10-06T09:55:18.668Z,11.85
2022-10-06T09:57:50.336Z,10.23
2022-10-06T10:00:31.632Z,8.77
2022-10-06T10:03:07.458Z,7.97
2022-10-06T10:05:37.158Z,10.35
2022-10-06T10:08:22.438Z,9.13
2022-10-06T10:10:51.573Z,12.27
2022-10-06T10:13:25.978Z,9.68
2022-10-06T10:16:01.116Z,9.83
2022-10-06T10:18:30.458Z,9.48
2022-10-06T10:21:08.759Z,8.77
2022-10-06T10:23:39.080Z,11.10
2022-10-06T10:26:17.860Z,11.20
2022-10-06T10:28:56.115Z,9.40
2022-10-06T10:31:41.978Z,9.98
2022-10-06T10:34:32.903Z,10.50
2022-10-06T10:37:31.245Z,8.25
2022-10-06T10:40:10.070Z,13.00
2022-10-06T10:43:07.207Z,10.13
2022-10-06T10:45:36.744Z,10.13
2022-10-06T10:48:15.469Z,16.58
2022-10-06T10:51:14.029Z,11.77
2022-10-06T10:54:03.099Z,10.48
2022-10-06T10:57:03.126Z,14.13
2022-10-06T11:00:09.304Z,10.75
2022-10-06T11:06:05.417Z,10.27
2022-10-06T11:09:14.735Z,9.85
2022-10-06T11:12:33.290Z,11.20
2022-10-06T11:15:21.277Z,9.80
2022-10-06T11:18:49.617Z,8.73
2022-10-06T11:21:35.357Z,10.30
2022-10-06T11:24:26.585Z,8.93
2022-10-06T11:27:53.116Z,10.70
2022-10-06T11:30:26.604Z,11.52
2022-10-06T11:33:23.387Z,11.07
2022-10-06T11:35:50.869Z,9.07
2022-10-06T11:38:38.225Z,9.77
2022-10-06T11:41:32.262Z,8.77
2022-10-06T11:44:03.734Z,7.22
2022-10-06T11:46:38.278Z,8.25
2022-10-06T11:49:30.465Z,11.23
2022-10-06T11:52:08.290Z,7.90
2022-10-06T11:54:47.838Z,6.83
2022-10-06T11:57:30.285Z,9.63
2022-10-06T12:00:16.497Z,8.48
2022-10-06T12:02:45.285Z,9.68
2022-10-06T12:05:45.928Z,8.48
2022-10-06T12:08:00.653Z,10.93
2022-10-06T12:10:27.957Z,9.75
2022-10-06T12:13:31.794Z,9.57
2022-10-06T12:19:20.980Z,9.55
2022-10-06T12:21:48.556Z,9.47
2022-10-06T12:24:42.163Z,8.05
2022-10-06T12:27:24.991Z,10.57
2022-10-06T12:29:59.997Z,7.63
2022-10-06T12:32:46.750Z,9.18
2022-10-06T12:35:32.485Z,9.17
2022-10-06T12:38:06.797Z,6.50
2022-10-06T12:40:44.299Z,9.65
2022-10-06T12:43:23.349Z,10.23
2022-10-06T12:45:59.806Z,12.18
2022-10-06T12:48:55.484Z,7.13
2022-10-06T12:51:35.975Z,6.60
2022-10-06T12:54:15.382Z,12.13
2022-10-06T12:56:43.269Z,8.65
2022-10-06T12:59:22.647Z,12.82
2022-10-06T13:01:55.435Z,7.63
2022-10-06T13:04:31.877Z,8.35
2022-10-06T13:06:59.316Z,9.95
2022-10-06T13:09:26.594Z,12.25
2022-10-06T13:11:53.977Z,9.35
2022-10-06T13:14:21.301Z,7.57
2022-10-06T13:16:48.771Z,11.02
2022-10-06T13:19:24.270Z,9.18
2022-10-06T13:21:51.613Z,9.20
2022-10-06T13:24:20.786Z,7.82
2022-10-06T13:26:48.323Z,10.07
2022-10-06T13:29:24.192Z,7.53
2022-10-06T13:31:53.384Z,8.27
2022-10-06T13:34:30.357Z,8.55
2022-10-06T13:36:58.486Z,7.07
2022-10-06T13:39:27.178Z,8.80
2022-10-06T13:41:57.397Z,7.90
2022-10-06T13:44:55.437Z,7.47
2022-10-06T13:47:24.527Z,9.40
2022-10-06T13:50:08.568Z,9.55
2022-10-06T13:52:54.048Z,10.20
2022-10-06T13:55:28.468Z,9.73
2022-10-06T13:58:01.972Z,11.18
2022-10-06T14:00:56.126Z,10.80
2022-10-06T14:06:16.226Z,7.80
2022-10-06T14:08:49.521Z,9.93
2022-10-06T14:11:23.498Z,8.48
2022-10-06T14:13:58.237Z,7.90
2022-10-06T14:16:26.318Z,8.40
2022-10-06T14:18:57.181Z,9.77
2022-10-06T14:21:37.074Z,10.15
2022-10-06T14:24:16.525Z,10.13
2022-10-06T14:26:44.366Z,9.02
2022-10-06T14:29:14.226Z,10.85
2022-10-06T14:31:41.567Z,9.03
2022-10-06T14:34:15.574Z,9.63
2022-10-06T14:36:44.357Z,9.15
2022-10-06T14:39:12.731Z,8.32
2022-10-06T14:41:39.973Z,11.35
2022-10-06T14:44:09.875Z,9.20
2022-10-06T14:46:38.049Z,8.45
2022-10-06T14:49:07.513Z,8.68
2022-10-06T14:51:37.137Z,6.72
2022-10-06T14:54:05.019Z,8.20
2022-10-06T14:56:33.675Z,7.83
2022-10-06T14:59:03.737Z,9.00
2022-10-06T15:01:31.558Z,9.75
2022-10-06T15:04:00.527Z,7.28
2022-10-06T15:06:47.034Z,9.10
2022-10-06T15:09:14.406Z,9.17
2022-10-06T15:11:41.872Z,9.07
2022-10-06T15:14:09.628Z,9.75
2022-10-06T15:16:39.393Z,10.48
2022-10-06T15:19:06.689Z,8.45
2022-10-06T15:21:34.312Z,6.93
2022-10-06T15:24:04.843Z,8.07
2022-10-06T15:26:50.656Z,8.52
2022-10-06T15:29:18.062Z,7.38
2022-10-06T15:31:48.234Z,8.02
2022-10-06T15:34:15.546Z,11.47
2022-10-06T15:36:42.881Z,9.25
2022-10-06T15:39:12.098Z,8.15
2022-10-06T15:41:40.614Z,7.35
2022-10-06T15:44:08.676Z,9.27
2022-10-06T15:46:40.127Z,10.23
2022-10-06T15:49:14.684Z,7.28
2022-10-06T15:51:52.230Z,7.72
2022-10-06T15:54:30.284Z,8.13
2022-10-06T15:56:58.786Z,11.52
2022-10-06T15:59:26.645Z,8.60
2022-10-06T16:02:00.513Z,7.72
2022-10-06T16:04:31.157Z,12.80
2022-10-06T16:06:58.694Z,9.00
2022-10-06T16:09:45.101Z,8.52
2022-10-06T16:12:14.051Z,11.80
2022-10-06T16:14:41.245Z,9.88
2022-10-06T16:17:09.668Z,14.35
2022-10-06T16:19:37.202Z,9.35
2022-10-06T16:22:05.226Z,10.50
2022-10-06T16:24:32.735Z,10.33
2022-10-06T16:27:00.279Z,8.38
2022-10-06T16:29:27.787Z,10.90
2022-10-06T16:31:55.306Z,9.02
2022-10-06T16:34:22.619Z,10.93
2022-10-06T16:36:49.923Z,11.50
2022-10-06T16:39:18.859Z,14.52
2022-10-06T16:41:46.202Z,9.23
2022-10-06T16:44:13.499Z,10.48
2022-10-06T16:46:40.886Z,10.50
2022-10-06T16:49:09.385Z,12.07
2022-10-06T16:51:38.135Z,12.88
2022-10-06T16:54:09.566Z,10.63
2022-10-06T16:56:47.271Z,16.50
2022-10-06T16:59:18.744Z,15.10
2022-10-06T17:01:46.187Z,15.53
2022-10-06T17:04:15.341Z,16.08
2022-10-06T17:06:44.108Z,18.20
2022-10-06T17:09:15.530Z,16.27
2022-10-06T17:11:47.714Z,17.60
2022-10-06T17:14:15.375Z,17.07
2022-10-06T17:16:43.816Z,20.73
2022-10-06T17:19:12.201Z,14.40
2022-10-06T17:21:46.158Z,13.93
2022-10-06T17:24:14.566Z,16.05
2022-10-06T17:26:42.712Z,19.90
2022-10-06T17:29:19.107Z,16.65
2022-10-06T17:31:47.267Z,21.25
2022-10-06T17:34:20.291Z,25.33
2022-10-06T17:36:50.030Z,44.67
2022-10-06T17:39:18.767Z,18.63
2022-10-06T17:41:47.663Z,25.83
2022-10-06T17:44:22.925Z,25.65
2022-10-06T17:46:52.291Z,26.25
2022-10-06T17:49:20.815Z,21.08
2022-10-06T17:51:48.498Z,26.87
2022-10-06T17:54:17.128Z,19.63
2022-10-06T17:56:44.787Z,20.02
2022-10-06T17:59:16.844Z,22.80
2022-10-06T18:01:46.953Z,24.00
2022-10-06T18:04:17.407Z,23.53
2022-10-06T18:06:45.534Z,23.63
2022-10-06T18:09:12.907Z,22.13
2022-10-06T18:11:43.898Z,21.10
2022-10-06T18:14:14.945Z,20.42
2022-10-06T18:16:55.057Z,28.03
2022-10-06T18:19:30.483Z,23.75
2022-10-06T18:22:10.111Z,22.58
2022-10-06T18:24:37.924Z,21.63
2022-10-06T18:27:06.593Z,27.65
2022-10-06T18:29:35.433Z,25.23
2022-10-06T18:35:00.643Z,20.63
2022-10-06T18:37:38.557Z,22.73
2022-10-06T18:40:08.868Z,25.85
2022-10-06T18:42:37.793Z,21.43
2022-10-06T18:45:24.149Z,33.92
2022-10-06T18:48:10.201Z,23.27
2022-10-06T18:50:37.520Z,21.13
2022-10-06T18:53:04.722Z,21.23
2022-10-06T18:55:32.205Z,29.33
2022-10-06T18:57:59.389Z,20.85
2022-10-06T19:00:26.765Z,26.08
2022-10-06T19:02:55.610Z,30.23
2022-10-06T19:05:23.610Z,22.20
2022-10-06T19:07:52.561Z,22.57
2022-10-06T19:10:19.953Z,22.05
2022-10-06T19:12:48.308Z,19.48
2022-10-06T19:15:20.237Z,24.95
2022-10-06T19:17:49.188Z,24.10
2022-10-06T19:20:16.938Z,23.40
2022-10-06T19:22:44.351Z,23.35
2022-10-06T19:25:11.549Z,22.75
2022-10-06T19:27:38.851Z,25.75
2022-10-06T19:30:06.485Z,21.92
2022-10-06T19:32:34.481Z,23.03
2022-10-06T19:35:05.192Z,23.67
2022-10-06T19:37:35.258Z,23.75
2022-10-06T19:40:02.468Z,21.60
2022-10-06T19:42:47.914Z,19.88
2022-10-06T19:45:16.139Z,21.60
2022-10-06T19:47:45.040Z,19.52
2022-10-06T19:50:13.091Z,18.55
2022-10-06T19:52:41.285Z,26.10
2022-10-06T19:55:08.618Z,25.90
2022-10-06T19:57:35.915Z,24.70
2022-10-06T20:00:04.446Z,18.15
2022-10-06T20:02:42.925Z,23.67
2022-10-06T20:05:12.810Z,22.75
2022-10-06T20:07:40.958Z,19.85
2022-10-06T20:10:08.381Z,18.07
2022-10-06T20:12:35.927Z,24.55
2022-10-06T20:15:03.444Z,18.75
2022-10-06T20:17:30.685Z,17.48
2022-10-06T20:19:59.348Z,18.55
2022-10-06T20:22:26.565Z,16.63
2022-10-06T20:24:54.255Z,16.92
2022-10-06T20:27:21.494Z,15.90
2022-10-06T20:29:48.928Z,19.70
2022-10-06T20:32:16.129Z,20.25
2022-10-06T20:34:43.461Z,18.07
2022-10-06T20:37:10.666Z,17.23
2022-10-06T20:39:56.181Z,17.33
2022-10-06T20:42:23.494Z,16.48
2022-10-06T20:44:51.268Z,15.88
2022-10-06T20:47:18.558Z,14.70
2022-10-06T20:49:45.779Z,15.88
2022-10-06T20:52:16.184Z,14.82
2022-10-06T20:54:44.207Z,18.23
2022-10-06T20:57:11.492Z,18.35
2022-10-06T20:59:38.808Z,17.00
2022-10-06T21:02:06.228Z,16.52
2022-10-06T21:04:34.758Z,15.95
2022-10-06T21:07:05.950Z,14.02
2022-10-06T21:09:33.370Z,16.50
2022-10-06T21:12:00.710Z,18.37
2022-10-06T21:14:28.134Z,14.13
2022-10-06T21:16:55.447Z,17.75
2022-10-06T21:19:22.796Z,17.67
2022-10-06T21:21:50.444Z,15.07
2022-10-06T21:24:17.851Z,20.63
2022-10-06T21:26:45.135Z,15.85
2022-10-06T21:29:16.014Z,16.70
2022-10-06T21:31:44.497Z,17.38
2022-10-06T21:34:12.021Z,17.65
2022-10-06T21:36:39.357Z,15.13
2022-10-06T21:39:07.010Z,14.60
2022-10-06T21:41:38.539Z,19.73
2022-10-06T21:44:06.800Z,14.25
2022-10-06T21:46:35.160Z,17.65
2022-10-06T21:49:03.950Z,14.73
2022-10-06T21:51:31.543Z,17.08
2022-10-06T21:53:59.391Z,16.40
2022-10-06T21:56:27.400Z,15.57
2022-10-06T21:58:55.872Z,15.63
2022-10-06T22:01:27.711Z,14.93
2022-10-06T22:03:55.712Z,19.67
2022-10-06T22:06:23.063Z,17.48
2022-10-06T22:08:50.420Z,14.88
2022-10-06T22:11:22.130Z,14.88
2022-10-06T22:13:50.935Z,17.80
2022-10-06T22:16:20.662Z,16.88
2022-10-06T22:18:48.195Z,15.95
2022-10-06T22:21:16.358Z,16.73
2022-10-06T22:23:44.317Z,13.98
2022-10-06T22:26:12.509Z,12.63
2022-10-06T22:28:40.184Z,14.85
2022-10-06T22:31:10.960Z,14.52
2022-10-06T22:33:38.990Z,12.40
2022-10-06T22:36:06.896Z,15.60
2022-10-06T22:38:34.453Z,16.40
2022-10-06T22:41:02.494Z,14.75
2022-10-06T22:43:29.947Z,13.00
2022-10-06T22:45:57.568Z,13.63
2022-10-06T22:48:24.992Z,13.50
2022-10-06T22:50:52.522Z,13.83
2022-10-06T22:53:20.851Z,16.02
2022-10-06T22:55:48.204Z,12.73
2022-10-06T22:58:15.539Z,11.68
2022-10-06T23:00:43.020Z,14.52
2022-10-06T23:03:10.681Z,12.57
2022-10-06T23:05:38.077Z,15.88
2022-10-06T23:08:05.762Z,13.93
2022-10-06T23:10:36.666Z,15.98
2022-10-06T23:13:03.997Z,14.77
2022-10-06T23:15:31.302Z,12.40
2022-10-06T23:17:58.651Z,15.35
2022-10-06T23:20:25.914Z,12.60
2022-10-06T23:22:55.407Z,10.63
2022-10-06T23:25:27.029Z,12.68
2022-10-06T23:27:54.672Z,14.37
2022-10-06T23:30:21.916Z,13.30
2022-10-06T23:32:49.324Z,12.68
2022-10-06T23:35:16.574Z,11.88
2022-10-06T23:37:44.073Z,13.05
2022-10-06T23:40:11.981Z,17.07
2022-10-06T23:42:39.324Z,17.02
2022-10-06T23:45:07.812Z,12.98
2022-10-06T23:47:35.165Z,15.40
2022-10-06T23:50:02.419Z,14.00
2022-10-06T23:52:29.806Z,12.67
2022-10-06T23:54:57.096Z,12.75
2022-10-06T23:57:24.411Z,12.95
2022-10-06T23:59:51.675Z,13.75
